sensor_id;sensor_type;location;lat;lon;timestamp;P1;durP1;ratioP1;P2;durP2;ratioP2
27039;SDS011;14589;51.578;7.306;2023-03-01T00:01:24;0.00;;;0.00;;
27039;SDS011;14589;51.578;7.306;2023-03-01T00:03:53;0.00;;;0.00;;
27039;SDS011;14589;51.578;7.306;2023-03-01T00:06:19;0.00;;;0.00;;
27039;SDS011;14589;51.578;7.306;2023-03-01T00:08:45;0.00;;;0.00;;
27039;SDS011;14589;51.578;7.306;2023-03-01T00:11:21;0.00;;;0.00;;
27039;SDS011;14589;51.578;7.306;2023-03-01T00:13:49;0.00;;;0.00;;
27039;SDS011;14589;51.578;7.306;2023-03-01T00:16:18;0.00;;;0.00;;
27039;SDS011;14589;51.578;7.306;2023-03-01T00:18:46;0.00;;;0.00;;
27039;SDS011;14589;51.578;7.306;2023-03-01T00:21:13;0.00;;;0.00;;
27039;SDS011;14589;51.578;7.306;2023-03-01T00:23:41;0.00;;;0.00;;
27039;SDS011;14589;51.578;7.306;2023-03-01T00:26:13;0.00;;;0.00;;
27039;SDS011;14589;51.578;7.306;2023-03-01T00:28:39;0.00;;;0.00;;
27039;SDS011;14589;51.578;7.306;2023-03-01T00:31:07;0.00;;;0.00;;
27039;SDS011;14589;51.578;7.306;2023-03-01T00:33:34;0.00;;;0.00;;
27039;SDS011;14589;51.578;7.306;2023-03-01T00:36:00;0.00;;;0.00;;
27039;SDS011;14589;51.578;7.306;2023-03-01T00:38:26;0.00;;;0.00;;
27039;SDS011;14589;51.578;7.306;2023-03-01T00:40:51;0.00;;;0.00;;
27039;SDS011;14589;51.578;7.306;2023-03-01T00:43:17;0.00;;;0.00;;
27039;SDS011;14589;51.578;7.306;2023-03-01T00:45:42;0.00;;;0.00;;
27039;SDS011;14589;51.578;7.306;2023-03-01T00:48:08;0.00;;;0.00;;
27039;SDS011;14589;51.578;7.306;2023-03-01T00:50:33;0.00;;;0.00;;
27039;SDS011;14589;51.578;7.306;2023-03-01T00:52:58;0.00;;;0.00;;
27039;SDS011;14589;51.578;7.306;2023-03-01T00:55:24;0.00;;;0.00;;
27039;SDS011;14589;51.578;7.306;2023-03-01T00:57:50;0.00;;;0.00;;
27039;SDS011;14589;51.578;7.306;2023-03-01T01:00:15;0.00;;;0.00;;
27039;SDS011;14589;51.578;7.306;2023-03-01T01:02:41;0.00;;;0.00;;
27039;SDS011;14589;51.578;7.306;2023-03-01T01:05:07;0.00;;;0.00;;
27039;SDS011;14589;51.578;7.306;2023-03-01T01:07:32;0.00;;;0.00;;
27039;SDS011;14589;51.578;7.306;2023-03-01T01:09:58;0.00;;;0.00;;
27039;SDS011;14589;51.578;7.306;2023-03-01T01:12:23;0.00;;;0.00;;
27039;SDS011;14589;51.578;7.306;2023-03-01T01:14:49;0.00;;;0.00;;
27039;SDS011;14589;51.578;7.306;2023-03-01T01:17:15;0.00;;;0.00;;
27039;SDS011;14589;51.578;7.306;2023-03-01T01:19:40;0.00;;;0.00;;
27039;SDS011;14589;51.578;7.306;2023-03-01T01:22:05;0.00;;;0.00;;
27039;SDS011;14589;51.578;7.306;2023-03-01T01:24:31;0.00;;;0.00;;
27039;SDS011;14589;51.578;7.306;2023-03-01T01:26:56;0.00;;;0.00;;
27039;SDS011;14589;51.578;7.306;2023-03-01T01:29:22;0.00;;;0.00;;
27039;SDS011;14589;51.578;7.306;2023-03-01T01:31:47;0.00;;;0.00;;
27039;SDS011;14589;51.578;7.306;2023-03-01T01:34:14;0.00;;;0.00;;
27039;SDS011;14589;51.578;7.306;2023-03-01T01:36:40;0.00;;;0.00;;
27039;SDS011;14589;51.578;7.306;2023-03-01T01:39:06;0.00;;;0.00;;
27039;SDS011;14589;51.578;7.306;2023-03-01T01:41:32;0.00;;;0.00;;
27039;SDS011;14589;51.578;7.306;2023-03-01T01:44:18;0.00;;;0.00;;
27039;SDS011;14589;51.578;7.306;2023-03-01T01:46:55;0.00;;;0.00;;
27039;SDS011;14589;51.578;7.306;2023-03-01T01:49:25;0.00;;;0.00;;
27039;SDS011;14589;51.578;7.306;2023-03-01T01:52:00;0.00;;;0.00;;
27039;SDS011;14589;51.578;7.306;2023-03-01T01:57:06;0.00;;;0.00;;
27039;SDS011;14589;51.578;7.306;2023-03-01T01:59:33;0.00;;;0.00;;
27039;SDS011;14589;51.578;7.306;2023-03-01T02:01:59;0.00;;;0.00;;
27039;SDS011;14589;51.578;7.306;2023-03-01T02:04:27;0.00;;;0.00;;
27039;SDS011;14589;51.578;7.306;2023-03-01T02:06:55;0.00;;;0.00;;
27039;SDS011;14589;51.578;7.306;2023-03-01T02:09:24;0.00;;;0.00;;
27039;SDS011;14589;51.578;7.306;2023-03-01T02:11:50;0.00;;;0.00;;
27039;SDS011;14589;51.578;7.306;2023-03-01T02:14:16;0.00;;;0.00;;
27039;SDS011;14589;51.578;7.306;2023-03-01T02:16:42;0.00;;;0.00;;
27039;SDS011;14589;51.578;7.306;2023-03-01T02:19:08;0.00;;;0.00;;
27039;SDS011;14589;51.578;7.306;2023-03-01T02:21:44;0.00;;;0.00;;
27039;SDS011;14589;51.578;7.306;2023-03-01T02:24:24;0.00;;;0.00;;
27039;SDS011;14589;51.578;7.306;2023-03-01T02:27:07;0.00;;;0.00;;
27039;SDS011;14589;51.578;7.306;2023-03-01T02:29:32;0.00;;;0.00;;
27039;SDS011;14589;51.578;7.306;2023-03-01T02:31:59;0.00;;;0.00;;
27039;SDS011;14589;51.578;7.306;2023-03-01T02:34:25;0.00;;;0.00;;
27039;SDS011;14589;51.578;7.306;2023-03-01T02:39:26;0.00;;;0.00;;
27039;SDS011;14589;51.578;7.306;2023-03-01T02:41:54;0.00;;;0.00;;
27039;SDS011;14589;51.578;7.306;2023-03-01T02:44:21;0.00;;;0.00;;
27039;SDS011;14589;51.578;7.306;2023-03-01T02:46:48;0.00;;;0.00;;
27039;SDS011;14589;51.578;7.306;2023-03-01T02:49:19;0.00;;;0.00;;
27039;SDS011;14589;51.578;7.306;2023-03-01T02:56:51;0.00;;;0.00;;
27039;SDS011;14589;51.578;7.306;2023-03-01T02:59:20;0.00;;;0.00;;
27039;SDS011;14589;51.578;7.306;2023-03-01T03:01:47;0.00;;;0.00;;
27039;SDS011;14589;51.578;7.306;2023-03-01T03:04:14;0.00;;;0.00;;
27039;SDS011;14589;51.578;7.306;2023-03-01T03:06:47;0.00;;;0.00;;
27039;SDS011;14589;51.578;7.306;2023-03-01T03:09:13;0.00;;;0.00;;
27039;SDS011;14589;51.578;7.306;2023-03-01T03:11:42;0.00;;;0.00;;
27039;SDS011;14589;51.578;7.306;2023-03-01T03:14:12;0.00;;;0.00;;
27039;SDS011;14589;51.578;7.306;2023-03-01T03:16:41;0.00;;;0.00;;
27039;SDS011;14589;51.578;7.306;2023-03-01T03:19:08;0.00;;;0.00;;
27039;SDS011;14589;51.578;7.306;2023-03-01T03:21:34;0.00;;;0.00;;
27039;SDS011;14589;51.578;7.306;2023-03-01T03:24:00;0.00;;;0.00;;
27039;SDS011;14589;51.578;7.306;2023-03-01T03:26:26;0.00;;;0.00;;
27039;SDS011;14589;51.578;7.306;2023-03-01T03:28:51;0.00;;;0.00;;
27039;SDS011;14589;51.578;7.306;2023-03-01T03:31:17;0.00;;;0.00;;
27039;SDS011;14589;51.578;7.306;2023-03-01T03:33:42;0.00;;;0.00;;
27039;SDS011;14589;51.578;7.306;2023-03-01T03:36:07;0.00;;;0.00;;
27039;SDS011;14589;51.578;7.306;2023-03-01T03:38:37;0.00;;;0.00;;
27039;SDS011;14589;51.578;7.306;2023-03-01T03:41:05;0.00;;;0.00;;
27039;SDS011;14589;51.578;7.306;2023-03-01T03:43:32;0.00;;;0.00;;
27039;SDS011;14589;51.578;7.306;2023-03-01T03:45:59;0.00;;;0.00;;
27039;SDS011;14589;51.578;7.306;2023-03-01T03:48:25;0.00;;;0.00;;
27039;SDS011;14589;51.578;7.306;2023-03-01T03:50:55;0.00;;;0.00;;
27039;SDS011;14589;51.578;7.306;2023-03-01T03:53:22;0.00;;;0.00;;
27039;SDS011;14589;51.578;7.306;2023-03-01T03:55:48;0.00;;;0.00;;
27039;SDS011;14589;51.578;7.306;2023-03-01T03:58:14;0.00;;;0.00;;
27039;SDS011;14589;51.578;7.306;2023-03-01T04:00:42;0.00;;;0.00;;
27039;SDS011;14589;51.578;7.306;2023-03-01T04:03:08;0.00;;;0.00;;
27039;SDS011;14589;51.578;7.306;2023-03-01T04:05:36;0.00;;;0.00;;
27039;SDS011;14589;51.578;7.306;2023-03-01T04:08:02;0.00;;;0.00;;
27039;SDS011;14589;51.578;7.306;2023-03-01T04:10:28;0.00;;;0.00;;
27039;SDS011;14589;51.578;7.306;2023-03-01T04:12:55;0.00;;;0.00;;
27039;SDS011;14589;51.578;7.306;2023-03-01T04:15:21;0.00;;;0.00;;
27039;SDS011;14589;51.578;7.306;2023-03-01T04:17:49;0.00;;;0.00;;
27039;SDS011;14589;51.578;7.306;2023-03-01T04:20:18;0.00;;;0.00;;
27039;SDS011;14589;51.578;7.306;2023-03-01T04:22:49;0.00;;;0.00;;
27039;SDS011;14589;51.578;7.306;2023-03-01T04:25:36;0.00;;;0.00;;
27039;SDS011;14589;51.578;7.306;2023-03-01T04:28:05;0.00;;;0.00;;
27039;SDS011;14589;51.578;7.306;2023-03-01T04:30:31;0.00;;;0.00;;
27039;SDS011;14589;51.578;7.306;2023-03-01T04:33:10;0.00;;;0.00;;
27039;SDS011;14589;51.578;7.306;2023-03-01T04:35:36;0.00;;;0.00;;
27039;SDS011;14589;51.578;7.306;2023-03-01T04:38:05;0.00;;;0.00;;
27039;SDS011;14589;51.578;7.306;2023-03-01T04:40:33;0.00;;;0.00;;
27039;SDS011;14589;51.578;7.306;2023-03-01T04:42:59;0.00;;;0.00;;
27039;SDS011;14589;51.578;7.306;2023-03-01T04:45:24;0.00;;;0.00;;
27039;SDS011;14589;51.578;7.306;2023-03-01T04:47:49;0.00;;;0.00;;
27039;SDS011;14589;51.578;7.306;2023-03-01T04:50:17;0.00;;;0.00;;
27039;SDS011;14589;51.578;7.306;2023-03-01T04:52:49;0.00;;;0.00;;
27039;SDS011;14589;51.578;7.306;2023-03-01T04:55:14;0.00;;;0.00;;
27039;SDS011;14589;51.578;7.306;2023-03-01T04:57:40;0.00;;;0.00;;
27039;SDS011;14589;51.578;7.306;2023-03-01T05:00:07;0.00;;;0.00;;
27039;SDS011;14589;51.578;7.306;2023-03-01T05:02:55;0.00;;;0.00;;
27039;SDS011;14589;51.578;7.306;2023-03-01T05:07:51;0.00;;;0.00;;
27039;SDS011;14589;51.578;7.306;2023-03-01T05:10:24;0.00;;;0.00;;
27039;SDS011;14589;51.578;7.306;2023-03-01T05:12:50;0.00;;;0.00;;
27039;SDS011;14589;51.578;7.306;2023-03-01T05:15:17;0.00;;;0.00;;
27039;SDS011;14589;51.578;7.306;2023-03-01T05:17:49;0.00;;;0.00;;
27039;SDS011;14589;51.578;7.306;2023-03-01T05:20:14;0.00;;;0.00;;
27039;SDS011;14589;51.578;7.306;2023-03-01T05:22:40;0.00;;;0.00;;
27039;SDS011;14589;51.578;7.306;2023-03-01T05:25:05;0.00;;;0.00;;
27039;SDS011;14589;51.578;7.306;2023-03-01T05:27:32;0.00;;;0.00;;
27039;SDS011;14589;51.578;7.306;2023-03-01T05:29:58;0.00;;;0.00;;
27039;SDS011;14589;51.578;7.306;2023-03-01T05:32:23;0.00;;;0.00;;
27039;SDS011;14589;51.578;7.306;2023-03-01T05:34:49;0.00;;;0.00;;
27039;SDS011;14589;51.578;7.306;2023-03-01T05:37:14;0.00;;;0.00;;
27039;SDS011;14589;51.578;7.306;2023-03-01T05:39:40;0.00;;;0.00;;
27039;SDS011;14589;51.578;7.306;2023-03-01T05:42:08;0.00;;;0.00;;
27039;SDS011;14589;51.578;7.306;2023-03-01T05:44:35;0.00;;;0.00;;
27039;SDS011;14589;51.578;7.306;2023-03-01T05:47:01;0.00;;;0.00;;
27039;SDS011;14589;51.578;7.306;2023-03-01T05:49:26;0.00;;;0.00;;
27039;SDS011;14589;51.578;7.306;2023-03-01T05:51:52;0.00;;;0.00;;
27039;SDS011;14589;51.578;7.306;2023-03-01T05:54:20;0.00;;;0.00;;
27039;SDS011;14589;51.578;7.306;2023-03-01T05:56:46;0.00;;;0.00;;
27039;SDS011;14589;51.578;7.306;2023-03-01T05:59:12;0.00;;;0.00;;
27039;SDS011;14589;51.578;7.306;2023-03-01T06:01:38;0.00;;;0.00;;
27039;SDS011;14589;51.578;7.306;2023-03-01T06:04:04;0.00;;;0.00;;
27039;SDS011;14589;51.578;7.306;2023-03-01T06:06:29;0.00;;;0.00;;
27039;SDS011;14589;51.578;7.306;2023-03-01T06:08:59;0.00;;;0.00;;
27039;SDS011;14589;51.578;7.306;2023-03-01T06:11:29;0.00;;;0.00;;
27039;SDS011;14589;51.578;7.306;2023-03-01T06:13:54;0.00;;;0.00;;
27039;SDS011;14589;51.578;7.306;2023-03-01T06:16:20;0.00;;;0.00;;
27039;SDS011;14589;51.578;7.306;2023-03-01T06:18:45;0.00;;;0.00;;
27039;SDS011;14589;51.578;7.306;2023-03-01T06:21:11;0.00;;;0.00;;
27039;SDS011;14589;51.578;7.306;2023-03-01T06:23:36;0.00;;;0.00;;
27039;SDS011;14589;51.578;7.306;2023-03-01T06:26:05;0.00;;;0.00;;
27039;SDS011;14589;51.578;7.306;2023-03-01T06:28:32;0.00;;;0.00;;
27039;SDS011;14589;51.578;7.306;2023-03-01T06:30:57;0.00;;;0.00;;
27039;SDS011;14589;51.578;7.306;2023-03-01T06:33:22;0.00;;;0.00;;
27039;SDS011;14589;51.578;7.306;2023-03-01T06:35:49;0.00;;;0.00;;
27039;SDS011;14589;51.578;7.306;2023-03-01T06:38:15;0.00;;;0.00;;
27039;SDS011;14589;51.578;7.306;2023-03-01T06:40:42;0.00;;;0.00;;
27039;SDS011;14589;51.578;7.306;2023-03-01T06:43:07;0.00;;;0.00;;
27039;SDS011;14589;51.578;7.306;2023-03-01T06:45:33;0.00;;;0.00;;
27039;SDS011;14589;51.578;7.306;2023-03-01T06:48:03;0.00;;;0.00;;
27039;SDS011;14589;51.578;7.306;2023-03-01T06:50:29;0.00;;;0.00;;
27039;SDS011;14589;51.578;7.306;2023-03-01T06:52:55;0.00;;;0.00;;
27039;SDS011;14589;51.578;7.306;2023-03-01T06:55:21;0.00;;;0.00;;
27039;SDS011;14589;51.578;7.306;2023-03-01T06:57:46;0.00;;;0.00;;
27039;SDS011;14589;51.578;7.306;2023-03-01T07:00:12;0.00;;;0.00;;
27039;SDS011;14589;51.578;7.306;2023-03-01T07:02:38;0.00;;;0.00;;
27039;SDS011;14589;51.578;7.306;2023-03-01T07:05:03;0.00;;;0.00;;
27039;SDS011;14589;51.578;7.306;2023-03-01T07:07:29;0.00;;;0.00;;
27039;SDS011;14589;51.578;7.306;2023-03-01T07:09:55;0.00;;;0.00;;
27039;SDS011;14589;51.578;7.306;2023-03-01T07:12:20;0.00;;;0.00;;
27039;SDS011;14589;51.578;7.306;2023-03-01T07:14:46;0.00;;;0.00;;
27039;SDS011;14589;51.578;7.306;2023-03-01T07:17:11;0.00;;;0.00;;
27039;SDS011;14589;51.578;7.306;2023-03-01T07:19:36;0.00;;;0.00;;
27039;SDS011;14589;51.578;7.306;2023-03-01T07:22:03;0.00;;;0.00;;
27039;SDS011;14589;51.578;7.306;2023-03-01T07:24:31;0.00;;;0.00;;
27039;SDS011;14589;51.578;7.306;2023-03-01T07:26:56;0.00;;;0.00;;
27039;SDS011;14589;51.578;7.306;2023-03-01T07:29:22;0.00;;;0.00;;
27039;SDS011;14589;51.578;7.306;2023-03-01T07:31:47;0.00;;;0.00;;
27039;SDS011;14589;51.578;7.306;2023-03-01T07:34:13;0.00;;;0.00;;
27039;SDS011;14589;51.578;7.306;2023-03-01T07:36:38;0.00;;;0.00;;
27039;SDS011;14589;51.578;7.306;2023-03-01T07:39:04;0.00;;;0.00;;
27039;SDS011;14589;51.578;7.306;2023-03-01T07:41:30;0.05;;;0.05;;
27039;SDS011;14589;51.578;7.306;2023-03-01T07:43:55;0.10;;;0.10;;
27039;SDS011;14589;51.578;7.306;2023-03-01T07:46:21;0.08;;;0.08;;
27039;SDS011;14589;51.578;7.306;2023-03-01T07:48:46;0.10;;;0.10;;
27039;SDS011;14589;51.578;7.306;2023-03-01T07:51:12;0.10;;;0.10;;
27039;SDS011;14589;51.578;7.306;2023-03-01T07:53:38;0.10;;;0.10;;
27039;SDS011;14589;51.578;7.306;2023-03-01T07:56:04;0.00;;;0.00;;
27039;SDS011;14589;51.578;7.306;2023-03-01T07:58:34;0.10;;;0.10;;
27039;SDS011;14589;51.578;7.306;2023-03-01T08:01:08;0.10;;;0.10;;
27039;SDS011;14589;51.578;7.306;2023-03-01T08:03:35;0.10;;;0.10;;
27039;SDS011;14589;51.578;7.306;2023-03-01T08:06:05;0.10;;;0.10;;
27039;SDS011;14589;51.578;7.306;2023-03-01T08:08:32;0.10;;;0.10;;
27039;SDS011;14589;51.578;7.306;2023-03-01T08:10:58;0.10;;;0.10;;
27039;SDS011;14589;51.578;7.306;2023-03-01T08:13:24;0.10;;;0.10;;
27039;SDS011;14589;51.578;7.306;2023-03-01T08:15:50;0.10;;;0.10;;
27039;SDS011;14589;51.578;7.306;2023-03-01T08:18:19;0.10;;;0.10;;
27039;SDS011;14589;51.578;7.306;2023-03-01T08:20:45;0.10;;;0.10;;
27039;SDS011;14589;51.578;7.306;2023-03-01T08:23:14;0.10;;;0.10;;
27039;SDS011;14589;51.578;7.306;2023-03-01T08:25:39;0.10;;;0.10;;
27039;SDS011;14589;51.578;7.306;2023-03-01T08:28:05;0.10;;;0.10;;
27039;SDS011;14589;51.578;7.306;2023-03-01T08:30:30;0.10;;;0.10;;
27039;SDS011;14589;51.578;7.306;2023-03-01T08:32:56;0.10;;;0.10;;
27039;SDS011;14589;51.578;7.306;2023-03-01T08:35:22;0.20;;;0.20;;
27039;SDS011;14589;51.578;7.306;2023-03-01T08:37:47;0.10;;;0.10;;
27039;SDS011;14589;51.578;7.306;2023-03-01T08:40:13;0.15;;;0.15;;
27039;SDS011;14589;51.578;7.306;2023-03-01T08:42:39;0.13;;;0.13;;
27039;SDS011;14589;51.578;7.306;2023-03-01T08:45:06;0.20;;;0.20;;
27039;SDS011;14589;51.578;7.306;2023-03-01T08:47:32;0.15;;;0.15;;
27039;SDS011;14589;51.578;7.306;2023-03-01T08:49:59;0.10;;;0.10;;
27039;SDS011;14589;51.578;7.306;2023-03-01T08:52:25;0.10;;;0.10;;
27039;SDS011;14589;51.578;7.306;2023-03-01T08:54:51;0.10;;;0.10;;
27039;SDS011;14589;51.578;7.306;2023-03-01T08:57:16;0.20;;;0.20;;
27039;SDS011;14589;51.578;7.306;2023-03-01T08:59:42;0.20;;;0.20;;
27039;SDS011;14589;51.578;7.306;2023-03-01T09:02:14;0.10;;;0.10;;
27039;SDS011;14589;51.578;7.306;2023-03-01T09:04:42;0.20;;;0.20;;
27039;SDS011;14589;51.578;7.306;2023-03-01T09:07:08;0.20;;;0.20;;
27039;SDS011;14589;51.578;7.306;2023-03-01T09:09:33;0.20;;;0.20;;
27039;SDS011;14589;51.578;7.306;2023-03-01T09:11:59;0.20;;;0.20;;
27039;SDS011;14589;51.578;7.306;2023-03-01T09:14:24;0.20;;;0.20;;
27039;SDS011;14589;51.578;7.306;2023-03-01T09:16:50;0.20;;;0.20;;
27039;SDS011;14589;51.578;7.306;2023-03-01T09:19:15;0.20;;;0.20;;
27039;SDS011;14589;51.578;7.306;2023-03-01T09:21:41;0.20;;;0.20;;
27039;SDS011;14589;51.578;7.306;2023-03-01T09:24:08;0.15;;;0.15;;
27039;SDS011;14589;51.578;7.306;2023-03-01T09:26:38;0.20;;;0.20;;
27039;SDS011;14589;51.578;7.306;2023-03-01T09:29:05;0.20;;;0.20;;
27039;SDS011;14589;51.578;7.306;2023-03-01T09:31:30;0.20;;;0.20;;
27039;SDS011;14589;51.578;7.306;2023-03-01T09:33:56;0.20;;;0.20;;
27039;SDS011;14589;51.578;7.306;2023-03-01T09:36:22;0.20;;;0.20;;
27039;SDS011;14589;51.578;7.306;2023-03-01T09:38:48;0.20;;;0.20;;
27039;SDS011;14589;51.578;7.306;2023-03-01T09:43:52;0.30;;;0.30;;
27039;SDS011;14589;51.578;7.306;2023-03-01T09:46:22;0.20;;;0.20;;
27039;SDS011;14589;51.578;7.306;2023-03-01T09:48:50;0.20;;;0.20;;
27039;SDS011;14589;51.578;7.306;2023-03-01T09:51:24;0.20;;;0.20;;
27039;SDS011;14589;51.578;7.306;2023-03-01T09:53:52;0.22;;;0.22;;
27039;SDS011;14589;51.578;7.306;2023-03-01T09:56:20;0.20;;;0.20;;
27039;SDS011;14589;51.578;7.306;2023-03-01T10:01:41;0.20;;;0.20;;
27039;SDS011;14589;51.578;7.306;2023-03-01T10:09:35;0.20;;;0.20;;
27039;SDS011;14589;51.578;7.306;2023-03-01T10:12:02;0.20;;;0.20;;
27039;SDS011;14589;51.578;7.306;2023-03-01T10:14:35;0.20;;;0.20;;
27039;SDS011;14589;51.578;7.306;2023-03-01T10:22:14;0.20;;;0.20;;
27039;SDS011;14589;51.578;7.306;2023-03-01T10:24:41;0.20;;;0.20;;
27039;SDS011;14589;51.578;7.306;2023-03-01T10:27:26;0.20;;;0.20;;
27039;SDS011;14589;51.578;7.306;2023-03-01T10:30:05;0.20;;;0.20;;
27039;SDS011;14589;51.578;7.306;2023-03-01T10:35:22;0.20;;;0.20;;
27039;SDS011;14589;51.578;7.306;2023-03-01T10:38:23;0.20;;;0.20;;
27039;SDS011;14589;51.578;7.306;2023-03-01T10:43:24;0.30;;;0.30;;
27039;SDS011;14589;51.578;7.306;2023-03-01T10:45:51;0.20;;;0.20;;
27039;SDS011;14589;51.578;7.306;2023-03-01T10:50:49;0.20;;;0.20;;
27039;SDS011;14589;51.578;7.306;2023-03-01T10:53:27;0.22;;;0.22;;
27039;SDS011;14589;51.578;7.306;2023-03-01T10:56:05;0.20;;;0.20;;
27039;SDS011;14589;51.578;7.306;2023-03-01T10:58:32;0.30;;;0.30;;
27039;SDS011;14589;51.578;7.306;2023-03-01T11:03:44;0.20;;;0.20;;
27039;SDS011;14589;51.578;7.306;2023-03-01T11:13:58;0.30;;;0.30;;
27039;SDS011;14589;51.578;7.306;2023-03-01T11:19:04;0.30;;;0.30;;
27039;SDS011;14589;51.578;7.306;2023-03-01T11:21:41;0.28;;;0.28;;
27039;SDS011;14589;51.578;7.306;2023-03-01T11:24:11;0.30;;;0.30;;
27039;SDS011;14589;51.578;7.306;2023-03-01T11:26:42;0.30;;;0.30;;
27039;SDS011;14589;51.578;7.306;2023-03-01T11:29:12;0.20;;;0.20;;
27039;SDS011;14589;51.578;7.306;2023-03-01T11:31:43;0.22;;;0.22;;
27039;SDS011;14589;51.578;7.306;2023-03-01T11:34:17;0.28;;;0.28;;
27039;SDS011;14589;51.578;7.306;2023-03-01T11:36:54;0.30;;;0.30;;
27039;SDS011;14589;51.578;7.306;2023-03-01T11:39:34;0.30;;;0.30;;
27039;SDS011;14589;51.578;7.306;2023-03-01T11:42:56;0.30;;;0.30;;
27039;SDS011;14589;51.578;7.306;2023-03-01T11:45:47;0.30;;;0.30;;
27039;SDS011;14589;51.578;7.306;2023-03-01T11:48:38;0.30;;;0.30;;
27039;SDS011;14589;51.578;7.306;2023-03-01T11:53:49;0.30;;;0.30;;
27039;SDS011;14589;51.578;7.306;2023-03-01T11:56:31;0.30;;;0.30;;
27039;SDS011;14589;51.578;7.306;2023-03-01T12:01:51;0.30;;;0.30;;
27039;SDS011;14589;51.578;7.306;2023-03-01T12:12:30;0.20;;;0.20;;
27039;SDS011;14589;51.578;7.306;2023-03-01T12:18:15;0.30;;;0.30;;
27039;SDS011;14589;51.578;7.306;2023-03-01T12:20:54;0.20;;;0.20;;
27039;SDS011;14589;51.578;7.306;2023-03-01T12:26:32;0.30;;;0.30;;
27039;SDS011;14589;51.578;7.306;2023-03-01T12:31:58;0.30;;;0.30;;
27039;SDS011;14589;51.578;7.306;2023-03-01T12:37:21;0.20;;;0.20;;
27039;SDS011;14589;51.578;7.306;2023-03-01T12:40:09;0.30;;;0.30;;
27039;SDS011;14589;51.578;7.306;2023-03-01T12:48:50;0.30;;;0.30;;
27039;SDS011;14589;51.578;7.306;2023-03-01T12:51:28;0.30;;;0.30;;
27039;SDS011;14589;51.578;7.306;2023-03-01T12:53:58;0.30;;;0.30;;
27039;SDS011;14589;51.578;7.306;2023-03-01T12:56:25;0.30;;;0.30;;
27039;SDS011;14589;51.578;7.306;2023-03-01T13:01:33;0.20;;;0.20;;
27039;SDS011;14589;51.578;7.306;2023-03-01T13:06:40;0.30;;;0.30;;
27039;SDS011;14589;51.578;7.306;2023-03-01T13:09:39;0.20;;;0.20;;
27039;SDS011;14589;51.578;7.306;2023-03-01T13:20:18;0.30;;;0.30;;
27039;SDS011;14589;51.578;7.306;2023-03-01T13:23:25;0.20;;;0.20;;
27039;SDS011;14589;51.578;7.306;2023-03-01T13:31:06;0.20;;;0.20;;
27039;SDS011;14589;51.578;7.306;2023-03-01T13:33:33;0.10;;;0.10;;
27039;SDS011;14589;51.578;7.306;2023-03-01T13:36:05;0.20;;;0.20;;
27039;SDS011;14589;51.578;7.306;2023-03-01T13:41:02;0.17;;;0.17;;
27039;SDS011;14589;51.578;7.306;2023-03-01T13:43:32;0.20;;;0.20;;
27039;SDS011;14589;51.578;7.306;2023-03-01T13:46:00;0.10;;;0.10;;
27039;SDS011;14589;51.578;7.306;2023-03-01T13:48:33;0.10;;;0.10;;
27039;SDS011;14589;51.578;7.306;2023-03-01T13:50:59;0.10;;;0.10;;
27039;SDS011;14589;51.578;7.306;2023-03-01T13:53:29;0.10;;;0.10;;
27039;SDS011;14589;51.578;7.306;2023-03-01T13:56:00;0.10;;;0.10;;
27039;SDS011;14589;51.578;7.306;2023-03-01T13:58:33;0.10;;;0.10;;
27039;SDS011;14589;51.578;7.306;2023-03-01T14:01:21;0.10;;;0.10;;
27039;SDS011;14589;51.578;7.306;2023-03-01T14:03:49;0.10;;;0.10;;
27039;SDS011;14589;51.578;7.306;2023-03-01T14:06:16;0.10;;;0.10;;
27039;SDS011;14589;51.578;7.306;2023-03-01T14:08:45;0.10;;;0.10;;
27039;SDS011;14589;51.578;7.306;2023-03-01T14:11:27;0.10;;;0.10;;
27039;SDS011;14589;51.578;7.306;2023-03-01T14:19:30;0.10;;;0.10;;
27039;SDS011;14589;51.578;7.306;2023-03-01T14:24:46;0.10;;;0.10;;
27039;SDS011;14589;51.578;7.306;2023-03-01T14:27:14;0.10;;;0.10;;
27039;SDS011;14589;51.578;7.306;2023-03-01T14:29:40;0.20;;;0.20;;
27039;SDS011;14589;51.578;7.306;2023-03-01T14:32:15;0.10;;;0.10;;
27039;SDS011;14589;51.578;7.306;2023-03-01T14:34:45;0.10;;;0.10;;
27039;SDS011;14589;51.578;7.306;2023-03-01T14:37:34;0.20;;;0.20;;
27039;SDS011;14589;51.578;7.306;2023-03-01T14:40:00;0.10;;;0.10;;
27039;SDS011;14589;51.578;7.306;2023-03-01T14:42:31;0.10;;;0.10;;
27039;SDS011;14589;51.578;7.306;2023-03-01T14:45:00;0.10;;;0.10;;
27039;SDS011;14589;51.578;7.306;2023-03-01T14:47:27;0.10;;;0.10;;
27039;SDS011;14589;51.578;7.306;2023-03-01T14:50:40;0.10;;;0.10;;
27039;SDS011;14589;51.578;7.306;2023-03-01T14:52:46;0.10;;;0.10;;
27039;SDS011;14589;51.578;7.306;2023-03-01T14:58:12;0.10;;;0.10;;
27039;SDS011;14589;51.578;7.306;2023-03-01T15:00:39;0.10;;;0.10;;
27039;SDS011;14589;51.578;7.306;2023-03-01T15:03:13;0.10;;;0.10;;
27039;SDS011;14589;51.578;7.306;2023-03-01T15:05:42;0.20;;;0.20;;
27039;SDS011;14589;51.578;7.306;2023-03-01T15:08:11;0.10;;;0.10;;
27039;SDS011;14589;51.578;7.306;2023-03-01T15:10:54;0.10;;;0.10;;
27039;SDS011;14589;51.578;7.306;2023-03-01T15:13:22;0.20;;;0.20;;
27039;SDS011;14589;51.578;7.306;2023-03-01T15:15:49;0.10;;;0.10;;
27039;SDS011;14589;51.578;7.306;2023-03-01T15:18:25;0.10;;;0.10;;
27039;SDS011;14589;51.578;7.306;2023-03-01T15:20:51;0.10;;;0.10;;
27039;SDS011;14589;51.578;7.306;2023-03-01T15:25:49;0.10;;;0.10;;
27039;SDS011;14589;51.578;7.306;2023-03-01T15:28:33;0.10;;;0.10;;
27039;SDS011;14589;51.578;7.306;2023-03-01T15:31:53;0.10;;;0.10;;
27039;SDS011;14589;51.578;7.306;2023-03-01T15:36:50;0.10;;;0.10;;
27039;SDS011;14589;51.578;7.306;2023-03-01T15:42:11;0.10;;;0.10;;
27039;SDS011;14589;51.578;7.306;2023-03-01T15:45:09;0.10;;;0.10;;
27039;SDS011;14589;51.578;7.306;2023-03-01T15:48:04;0.10;;;0.10;;
27039;SDS011;14589;51.578;7.306;2023-03-01T15:50:38;0.10;;;0.10;;
27039;SDS011;14589;51.578;7.306;2023-03-01T15:53:06;0.10;;;0.10;;
27039;SDS011;14589;51.578;7.306;2023-03-01T15:55:36;0.10;;;0.10;;
27039;SDS011;14589;51.578;7.306;2023-03-01T15:58:15;0.10;;;0.10;;
27039;SDS011;14589;51.578;7.306;2023-03-01T16:00:43;0.10;;;0.10;;
27039;SDS011;14589;51.578;7.306;2023-03-01T16:03:10;0.10;;;0.10;;
27039;SDS011;14589;51.578;7.306;2023-03-01T16:05:37;0.10;;;0.10;;
27039;SDS011;14589;51.578;7.306;2023-03-01T16:08:03;0.10;;;0.10;;
27039;SDS011;14589;51.578;7.306;2023-03-01T16:10:30;0.10;;;0.10;;
27039;SDS011;14589;51.578;7.306;2023-03-01T16:12:56;0.10;;;0.10;;
27039;SDS011;14589;51.578;7.306;2023-03-01T16:15:29;0.10;;;0.10;;
27039;SDS011;14589;51.578;7.306;2023-03-01T16:17:57;0.10;;;0.10;;
27039;SDS011;14589;51.578;7.306;2023-03-01T16:20:25;0.17;;;0.17;;
27039;SDS011;14589;51.578;7.306;2023-03-01T16:22:51;0.10;;;0.10;;
27039;SDS011;14589;51.578;7.306;2023-03-01T16:25:18;0.10;;;0.10;;
27039;SDS011;14589;51.578;7.306;2023-03-01T16:27:48;0.10;;;0.10;;
27039;SDS011;14589;51.578;7.306;2023-03-01T16:30:15;0.15;;;0.15;;
27039;SDS011;14589;51.578;7.306;2023-03-01T16:32:42;0.10;;;0.10;;
27039;SDS011;14589;51.578;7.306;2023-03-01T16:35:09;0.10;;;0.10;;
27039;SDS011;14589;51.578;7.306;2023-03-01T16:37:36;0.10;;;0.10;;
27039;SDS011;14589;51.578;7.306;2023-03-01T16:40:02;0.10;;;0.10;;
27039;SDS011;14589;51.578;7.306;2023-03-01T16:42:33;0.10;;;0.10;;
27039;SDS011;14589;51.578;7.306;2023-03-01T16:45:06;0.10;;;0.10;;
27039;SDS011;14589;51.578;7.306;2023-03-01T16:47:32;0.10;;;0.10;;
27039;SDS011;14589;51.578;7.306;2023-03-01T16:49:58;0.10;;;0.10;;
27039;SDS011;14589;51.578;7.306;2023-03-01T16:52:23;0.10;;;0.10;;
27039;SDS011;14589;51.578;7.306;2023-03-01T16:54:49;0.10;;;0.10;;
27039;SDS011;14589;51.578;7.306;2023-03-01T16:57:14;0.10;;;0.10;;
27039;SDS011;14589;51.578;7.306;2023-03-01T16:59:40;0.10;;;0.10;;
27039;SDS011;14589;51.578;7.306;2023-03-01T17:02:06;0.10;;;0.10;;